メインページ
METAR-TAF:

METAR-TAF

空港 :

ジョージ・ブッシュ・インターコンチネンタル空港

ヒューストン, テキサス州, アメリカ合衆国

緯度: 29-59-33N, 経度: 095-21-50W, 海抜: 29m

現時点の気象観測

当レポートは1時間6分前の22:53(UTC)に作成
南/南西の風 5kt
気温 35°C
湿度 47%
気圧 1015 hPa
視程: 11.3km
高度6000ftの雲はほとんどない
高度25000ftの雲は散在している

METAR: KIAH 162253Z 21005KT 7SM FEW060 SCT250 35/22 A2998 RMK AO2 SLP152 T03500217

時間: 18:59 (23:59 UTC)

予報

当レポートは30分前の23:29(UTC)に作成
予報は17日の 00時(UTC)から 18日の 06時(UTC)まで有効
の風 8kt
視程: 10km
高度5000ftの雲はほとんどない
17日の 0900時(UTC)から
の風 kt
視程: 9.7km
高度1500ftの雲は散在している
煙霧
17日の 1500時(UTC)から
南西の風 7kt
視程: 10km
高度3500ftの雲はほとんどない

TAF: KIAH 162329Z 1700/1806 18008KT P6SM FEW050 FM170900 00000KT 6SM HZ SCT015 FM171500 23007KT P6SM FEW035

4,000以上の空港の気象観測と天気予報(METAR報とTAF報)

利用可能な観測所は地図上に黄色い丸と赤い丸で示す。

丸の上にカーソルを重ねると観測所名を参照できる。

次にクリックすると気象観測と天気予報を参照できる。

マップの切り替え:黒色「×」印の緑ボタンをクリックして拡大、「-」印の緑ボタンをクリックして縮小、緑色の三角印をクリックして隣りの地図に切り替え


METAR-TAF: